sensor_id;sensor_type;location;lat;lon;timestamp;temperature;humidity
3996;DHT22;2012;49.794;9.722;2023-03-31T00:00:45;11.80;99.90
3996;DHT22;2012;49.794;9.722;2023-03-31T00:03:12;11.80;99.90
3996;DHT22;2012;49.794;9.722;2023-03-31T00:05:48;11.70;99.90
3996;DHT22;2012;49.794;9.722;2023-03-31T00:08:19;11.60;99.90
3996;DHT22;2012;49.794;9.722;2023-03-31T00:10:47;11.70;99.90
3996;DHT22;2012;49.794;9.722;2023-03-31T00:13:14;11.70;99.90
3996;DHT22;2012;49.794;9.722;2023-03-31T00:15:41;11.70;99.90
3996;DHT22;2012;49.794;9.722;2023-03-31T00:18:08;11.60;99.90
3996;DHT22;2012;49.794;9.722;2023-03-31T00:20:35;11.70;99.90
3996;DHT22;2012;49.794;9.722;2023-03-31T00:23:04;11.70;99.90
3996;DHT22;2012;49.794;9.722;2023-03-31T00:25:39;11.70;99.90
3996;DHT22;2012;49.794;9.722;2023-03-31T00:28:07;11.70;99.90
3996;DHT22;2012;49.794;9.722;2023-03-31T00:30:34;11.70;99.90
3996;DHT22;2012;49.794;9.722;2023-03-31T00:33:00;11.70;99.90
3996;DHT22;2012;49.794;9.722;2023-03-31T00:35:28;11.70;99.90
3996;DHT22;2012;49.794;9.722;2023-03-31T00:37:55;11.80;99.90
3996;DHT22;2012;49.794;9.722;2023-03-31T00:40:23;11.70;99.90
3996;DHT22;2012;49.794;9.722;2023-03-31T00:42:50;11.70;99.90
3996;DHT22;2012;49.794;9.722;2023-03-31T00:45:26;11.70;99.90
3996;DHT22;2012;49.794;9.722;2023-03-31T00:48:03;11.70;99.90
3996;DHT22;2012;49.794;9.722;2023-03-31T00:50:34;11.80;99.90
3996;DHT22;2012;49.794;9.722;2023-03-31T00:53:09;11.80;99.90
3996;DHT22;2012;49.794;9.722;2023-03-31T00:55:42;11.70;99.90
3996;DHT22;2012;49.794;9.722;2023-03-31T00:58:11;11.70;99.90
3996;DHT22;2012;49.794;9.722;2023-03-31T01:00:46;11.80;99.90
3996;DHT22;2012;49.794;9.722;2023-03-31T01:03:14;11.80;99.90
3996;DHT22;2012;49.794;9.722;2023-03-31T01:05:48;11.80;99.90
3996;DHT22;2012;49.794;9.722;2023-03-31T01:08:18;11.80;99.90
3996;DHT22;2012;49.794;9.722;2023-03-31T01:10:55;11.80;99.90
3996;DHT22;2012;49.794;9.722;2023-03-31T01:13:23;11.90;99.90
3996;DHT22;2012;49.794;9.722;2023-03-31T01:15:52;11.80;99.90
3996;DHT22;2012;49.794;9.722;2023-03-31T01:18:20;11.80;99.90
3996;DHT22;2012;49.794;9.722;2023-03-31T01:35:12;11.70;99.90
3996;DHT22;2012;49.794;9.722;2023-03-31T01:41:04;11.70;99.90
3996;DHT22;2012;49.794;9.722;2023-03-31T01:52:37;11.60;99.90
3996;DHT22;2012;49.794;9.722;2023-03-31T01:55:15;11.50;99.90
3996;DHT22;2012;49.794;9.722;2023-03-31T01:57:52;11.50;99.90
3996;DHT22;2012;49.794;9.722;2023-03-31T02:00:26;11.50;99.90
3996;DHT22;2012;49.794;9.722;2023-03-31T02:02:56;11.60;99.90
3996;DHT22;2012;49.794;9.722;2023-03-31T02:08:34;11.70;99.90
3996;DHT22;2012;49.794;9.722;2023-03-31T02:11:02;11.70;99.90
3996;DHT22;2012;49.794;9.722;2023-03-31T02:13:31;11.70;99.90
3996;DHT22;2012;49.794;9.722;2023-03-31T02:16:04;11.70;99.90
3996;DHT22;2012;49.794;9.722;2023-03-31T02:18:34;11.70;99.90
3996;DHT22;2012;49.794;9.722;2023-03-31T02:21:04;11.60;99.90
3996;DHT22;2012;49.794;9.722;2023-03-31T02:23:32;11.60;99.90
3996;DHT22;2012;49.794;9.722;2023-03-31T02:26:13;11.70;99.90
3996;DHT22;2012;49.794;9.722;2023-03-31T02:28:41;11.60;99.90
3996;DHT22;2012;49.794;9.722;2023-03-31T02:31:41;11.60;99.90
3996;DHT22;2012;49.794;9.722;2023-03-31T02:34:12;11.60;99.90
3996;DHT22;2012;49.794;9.722;2023-03-31T02:36:41;11.60;99.90
3996;DHT22;2012;49.794;9.722;2023-03-31T02:39:12;11.70;99.90
3996;DHT22;2012;49.794;9.722;2023-03-31T02:41:39;11.60;99.90
3996;DHT22;2012;49.794;9.722;2023-03-31T02:44:06;11.60;99.90
3996;DHT22;2012;49.794;9.722;2023-03-31T02:46:34;11.70;99.90
3996;DHT22;2012;49.794;9.722;2023-03-31T02:49:04;11.70;99.90
3996;DHT22;2012;49.794;9.722;2023-03-31T02:52:05;11.60;99.90
3996;DHT22;2012;49.794;9.722;2023-03-31T02:58:04;11.60;99.90
3996;DHT22;2012;49.794;9.722;2023-03-31T03:01:13;11.60;99.90
3996;DHT22;2012;49.794;9.722;2023-03-31T03:03:40;11.60;99.90
3996;DHT22;2012;49.794;9.722;2023-03-31T03:09:42;11.70;99.90
3996;DHT22;2012;49.794;9.722;2023-03-31T03:15:27;11.60;99.90
3996;DHT22;2012;49.794;9.722;2023-03-31T03:17:56;11.60;99.90
3996;DHT22;2012;49.794;9.722;2023-03-31T03:20:24;11.60;99.90
3996;DHT22;2012;49.794;9.722;2023-03-31T03:22:51;11.50;99.90
3996;DHT22;2012;49.794;9.722;2023-03-31T03:25:18;11.50;99.90
3996;DHT22;2012;49.794;9.722;2023-03-31T03:27:46;11.60;99.90
3996;DHT22;2012;49.794;9.722;2023-03-31T03:30:13;11.60;99.90
3996;DHT22;2012;49.794;9.722;2023-03-31T03:32:40;11.50;99.90
3996;DHT22;2012;49.794;9.722;2023-03-31T03:35:08;11.50;99.90
3996;DHT22;2012;49.794;9.722;2023-03-31T03:37:35;11.50;99.90
3996;DHT22;2012;49.794;9.722;2023-03-31T03:40:03;11.40;99.90
3996;DHT22;2012;49.794;9.722;2023-03-31T03:42:32;11.40;99.90
3996;DHT22;2012;49.794;9.722;2023-03-31T03:44:59;11.40;99.90
3996;DHT22;2012;49.794;9.722;2023-03-31T03:47:27;11.30;99.90
3996;DHT22;2012;49.794;9.722;2023-03-31T03:49:54;11.20;99.90
3996;DHT22;2012;49.794;9.722;2023-03-31T03:52:22;11.20;99.90
3996;DHT22;2012;49.794;9.722;2023-03-31T03:54:48;11.20;99.90
3996;DHT22;2012;49.794;9.722;2023-03-31T03:57:15;11.10;99.90
3996;DHT22;2012;49.794;9.722;2023-03-31T03:59:42;11.10;99.90
3996;DHT22;2012;49.794;9.722;2023-03-31T04:02:09;11.10;99.90
3996;DHT22;2012;49.794;9.722;2023-03-31T04:04:36;11.10;99.90
3996;DHT22;2012;49.794;9.722;2023-03-31T04:07:03;11.00;99.90
3996;DHT22;2012;49.794;9.722;2023-03-31T04:09:30;11.00;99.90
3996;DHT22;2012;49.794;9.722;2023-03-31T04:11:57;11.00;99.90
3996;DHT22;2012;49.794;9.722;2023-03-31T04:14:24;10.90;99.90
3996;DHT22;2012;49.794;9.722;2023-03-31T04:16:51;11.00;99.90
3996;DHT22;2012;49.794;9.722;2023-03-31T04:19:18;10.90;99.90
3996;DHT22;2012;49.794;9.722;2023-03-31T04:21:47;10.80;99.90
3996;DHT22;2012;49.794;9.722;2023-03-31T04:24:16;10.80;99.90
3996;DHT22;2012;49.794;9.722;2023-03-31T04:26:47;10.90;99.90
3996;DHT22;2012;49.794;9.722;2023-03-31T04:29:16;11.00;99.90
3996;DHT22;2012;49.794;9.722;2023-03-31T04:31:45;11.00;99.90
3996;DHT22;2012;49.794;9.722;2023-03-31T04:34:14;10.90;99.90
3996;DHT22;2012;49.794;9.722;2023-03-31T04:36:43;11.00;99.90
3996;DHT22;2012;49.794;9.722;2023-03-31T04:39:18;10.90;99.90
3996;DHT22;2012;49.794;9.722;2023-03-31T04:41:52;11.00;99.90
3996;DHT22;2012;49.794;9.722;2023-03-31T04:44:19;11.00;99.90
3996;DHT22;2012;49.794;9.722;2023-03-31T04:46:46;11.00;99.90
3996;DHT22;2012;49.794;9.722;2023-03-31T04:49:13;11.00;99.90
3996;DHT22;2012;49.794;9.722;2023-03-31T04:51:40;10.90;99.90
3996;DHT22;2012;49.794;9.722;2023-03-31T04:54:06;10.80;99.90
3996;DHT22;2012;49.794;9.722;2023-03-31T04:56:33;10.90;99.90
3996;DHT22;2012;49.794;9.722;2023-03-31T04:59:00;10.80;99.90
3996;DHT22;2012;49.794;9.722;2023-03-31T05:01:30;10.70;99.90
3996;DHT22;2012;49.794;9.722;2023-03-31T05:04:03;10.80;99.90
3996;DHT22;2012;49.794;9.722;2023-03-31T05:06:31;10.80;99.90
3996;DHT22;2012;49.794;9.722;2023-03-31T05:08:58;10.70;99.90
3996;DHT22;2012;49.794;9.722;2023-03-31T05:11:24;10.80;99.90
3996;DHT22;2012;49.794;9.722;2023-03-31T05:13:51;10.90;99.90
3996;DHT22;2012;49.794;9.722;2023-03-31T05:16:18;10.90;99.90
3996;DHT22;2012;49.794;9.722;2023-03-31T05:18:45;10.90;99.90
3996;DHT22;2012;49.794;9.722;2023-03-31T05:21:18;10.80;99.90
3996;DHT22;2012;49.794;9.722;2023-03-31T05:23:45;10.70;99.90
3996;DHT22;2012;49.794;9.722;2023-03-31T05:26:12;10.80;99.90
3996;DHT22;2012;49.794;9.722;2023-03-31T05:28:39;10.70;99.90
3996;DHT22;2012;49.794;9.722;2023-03-31T05:31:10;11.30;99.90
3996;DHT22;2012;49.794;9.722;2023-03-31T05:33:39;11.80;99.90
3996;DHT22;2012;49.794;9.722;2023-03-31T05:36:09;12.10;99.90
3996;DHT22;2012;49.794;9.722;2023-03-31T05:38:37;11.90;99.90
3996;DHT22;2012;49.794;9.722;2023-03-31T05:41:04;12.00;99.90
3996;DHT22;2012;49.794;9.722;2023-03-31T05:43:32;11.80;99.90
3996;DHT22;2012;49.794;9.722;2023-03-31T05:45:59;11.50;99.90
3996;DHT22;2012;49.794;9.722;2023-03-31T05:48:26;11.50;99.90
3996;DHT22;2012;49.794;9.722;2023-03-31T05:50:57;11.40;99.90
3996;DHT22;2012;49.794;9.722;2023-03-31T05:53:25;11.50;99.90
3996;DHT22;2012;49.794;9.722;2023-03-31T05:55:57;11.40;99.90
3996;DHT22;2012;49.794;9.722;2023-03-31T05:58:25;11.30;99.90
3996;DHT22;2012;49.794;9.722;2023-03-31T06:01:19;11.10;99.90
3996;DHT22;2012;49.794;9.722;2023-03-31T06:03:48;10.90;99.90
3996;DHT22;2012;49.794;9.722;2023-03-31T06:06:16;11.00;99.90
3996;DHT22;2012;49.794;9.722;2023-03-31T06:08:44;11.00;99.90
3996;DHT22;2012;49.794;9.722;2023-03-31T06:11:14;10.90;99.90
3996;DHT22;2012;49.794;9.722;2023-03-31T06:13:42;11.00;99.90
3996;DHT22;2012;49.794;9.722;2023-03-31T06:16:11;10.90;99.90
3996;DHT22;2012;49.794;9.722;2023-03-31T06:18:39;10.90;99.90
3996;DHT22;2012;49.794;9.722;2023-03-31T06:21:06;10.80;99.90
3996;DHT22;2012;49.794;9.722;2023-03-31T06:23:33;10.90;99.90
3996;DHT22;2012;49.794;9.722;2023-03-31T06:26:06;10.80;99.90
3996;DHT22;2012;49.794;9.722;2023-03-31T06:28:34;10.80;99.90
3996;DHT22;2012;49.794;9.722;2023-03-31T06:31:04;10.70;99.90
3996;DHT22;2012;49.794;9.722;2023-03-31T06:33:33;10.60;99.90
3996;DHT22;2012;49.794;9.722;2023-03-31T06:36:00;10.40;99.90
3996;DHT22;2012;49.794;9.722;2023-03-31T06:38:30;10.40;99.90
3996;DHT22;2012;49.794;9.722;2023-03-31T06:40:57;10.50;99.90
3996;DHT22;2012;49.794;9.722;2023-03-31T06:43:24;10.30;99.90
3996;DHT22;2012;49.794;9.722;2023-03-31T06:45:54;10.40;99.90
3996;DHT22;2012;49.794;9.722;2023-03-31T06:48:22;10.40;99.90
3996;DHT22;2012;49.794;9.722;2023-03-31T06:50:49;10.60;99.90
3996;DHT22;2012;49.794;9.722;2023-03-31T06:53:16;10.70;99.90
3996;DHT22;2012;49.794;9.722;2023-03-31T06:55:43;10.70;99.90
3996;DHT22;2012;49.794;9.722;2023-03-31T06:58:10;10.50;99.90
3996;DHT22;2012;49.794;9.722;2023-03-31T07:00:37;10.40;99.90
3996;DHT22;2012;49.794;9.722;2023-03-31T07:03:04;10.50;99.90
3996;DHT22;2012;49.794;9.722;2023-03-31T07:05:32;10.40;99.90
3996;DHT22;2012;49.794;9.722;2023-03-31T07:07:59;10.50;99.90
3996;DHT22;2012;49.794;9.722;2023-03-31T07:10:28;10.40;99.90
3996;DHT22;2012;49.794;9.722;2023-03-31T07:12:55;10.50;99.90
3996;DHT22;2012;49.794;9.722;2023-03-31T07:15:23;10.60;99.90
3996;DHT22;2012;49.794;9.722;2023-03-31T07:17:50;10.60;99.90
3996;DHT22;2012;49.794;9.722;2023-03-31T07:20:19;10.60;99.90
3996;DHT22;2012;49.794;9.722;2023-03-31T07:22:47;10.50;99.90
3996;DHT22;2012;49.794;9.722;2023-03-31T07:25:16;10.50;99.90
3996;DHT22;2012;49.794;9.722;2023-03-31T07:27:43;10.50;99.90
3996;DHT22;2012;49.794;9.722;2023-03-31T07:30:15;10.40;99.90
3996;DHT22;2012;49.794;9.722;2023-03-31T07:32:45;10.50;99.90
3996;DHT22;2012;49.794;9.722;2023-03-31T07:35:12;10.50;99.90
3996;DHT22;2012;49.794;9.722;2023-03-31T07:37:41;10.30;99.90
3996;DHT22;2012;49.794;9.722;2023-03-31T07:40:14;10.30;99.90
3996;DHT22;2012;49.794;9.722;2023-03-31T07:42:42;10.40;99.90
3996;DHT22;2012;49.794;9.722;2023-03-31T07:45:12;10.30;99.90
3996;DHT22;2012;49.794;9.722;2023-03-31T07:47:39;10.30;99.90
3996;DHT22;2012;49.794;9.722;2023-03-31T07:50:07;10.20;99.90
3996;DHT22;2012;49.794;9.722;2023-03-31T07:52:34;10.50;99.90
3996;DHT22;2012;49.794;9.722;2023-03-31T07:55:01;10.50;99.90
3996;DHT22;2012;49.794;9.722;2023-03-31T07:57:29;10.50;99.90
3996;DHT22;2012;49.794;9.722;2023-03-31T07:59:56;10.60;99.90
3996;DHT22;2012;49.794;9.722;2023-03-31T08:02:23;10.50;99.90
3996;DHT22;2012;49.794;9.722;2023-03-31T08:04:50;10.50;99.90
3996;DHT22;2012;49.794;9.722;2023-03-31T08:07:17;10.60;99.90
3996;DHT22;2012;49.794;9.722;2023-03-31T08:09:45;10.50;99.90
3996;DHT22;2012;49.794;9.722;2023-03-31T08:12:13;10.50;99.90
3996;DHT22;2012;49.794;9.722;2023-03-31T08:14:40;10.50;99.90
3996;DHT22;2012;49.794;9.722;2023-03-31T08:17:08;10.50;99.90
3996;DHT22;2012;49.794;9.722;2023-03-31T08:19:35;10.50;99.90
3996;DHT22;2012;49.794;9.722;2023-03-31T08:22:02;10.60;99.90
3996;DHT22;2012;49.794;9.722;2023-03-31T08:24:29;10.60;99.90
3996;DHT22;2012;49.794;9.722;2023-03-31T08:26:56;10.60;99.90
3996;DHT22;2012;49.794;9.722;2023-03-31T08:29:23;10.60;99.90
3996;DHT22;2012;49.794;9.722;2023-03-31T08:31:50;10.60;99.90
3996;DHT22;2012;49.794;9.722;2023-03-31T08:34:16;10.60;99.90
3996;DHT22;2012;49.794;9.722;2023-03-31T08:36:43;10.70;99.90
3996;DHT22;2012;49.794;9.722;2023-03-31T08:39:10;10.70;99.90
3996;DHT22;2012;49.794;9.722;2023-03-31T08:44:49;10.90;99.90
3996;DHT22;2012;49.794;9.722;2023-03-31T08:47:17;10.90;99.90
3996;DHT22;2012;49.794;9.722;2023-03-31T08:49:49;11.00;99.90
3996;DHT22;2012;49.794;9.722;2023-03-31T08:53:00;11.10;99.90
3996;DHT22;2012;49.794;9.722;2023-03-31T08:55:42;11.10;99.90
3996;DHT22;2012;49.794;9.722;2023-03-31T09:01:02;10.60;99.90
3996;DHT22;2012;49.794;9.722;2023-03-31T09:04:14;10.30;99.90
3996;DHT22;2012;49.794;9.722;2023-03-31T09:12:13;10.10;99.90
3996;DHT22;2012;49.794;9.722;2023-03-31T09:15:25;10.10;99.90
3996;DHT22;2012;49.794;9.722;2023-03-31T09:17:53;10.20;99.90
3996;DHT22;2012;49.794;9.722;2023-03-31T09:20:33;10.20;99.90
3996;DHT22;2012;49.794;9.722;2023-03-31T09:23:21;9.80;99.90
3996;DHT22;2012;49.794;9.722;2023-03-31T09:25:50;9.50;99.90
3996;DHT22;2012;49.794;9.722;2023-03-31T09:28:20;9.70;99.90
3996;DHT22;2012;49.794;9.722;2023-03-31T09:30:48;9.70;99.90
3996;DHT22;2012;49.794;9.722;2023-03-31T09:33:26;9.80;99.90
3996;DHT22;2012;49.794;9.722;2023-03-31T09:36:01;9.90;99.90
3996;DHT22;2012;49.794;9.722;2023-03-31T09:38:29;9.80;99.90
3996;DHT22;2012;49.794;9.722;2023-03-31T09:40:58;9.80;99.90
3996;DHT22;2012;49.794;9.722;2023-03-31T09:43:28;9.80;99.90
3996;DHT22;2012;49.794;9.722;2023-03-31T09:45:56;10.00;99.90
3996;DHT22;2012;49.794;9.722;2023-03-31T09:48:52;10.10;99.90
3996;DHT22;2012;49.794;9.722;2023-03-31T09:51:25;10.10;99.90
3996;DHT22;2012;49.794;9.722;2023-03-31T09:53:57;10.10;99.90
3996;DHT22;2012;49.794;9.722;2023-03-31T09:59:21;10.20;99.90
3996;DHT22;2012;49.794;9.722;2023-03-31T10:01:52;10.20;99.90
3996;DHT22;2012;49.794;9.722;2023-03-31T10:04:23;10.20;99.90
3996;DHT22;2012;49.794;9.722;2023-03-31T10:06:51;10.30;99.90
3996;DHT22;2012;49.794;9.722;2023-03-31T10:09:20;10.20;99.90
3996;DHT22;2012;49.794;9.722;2023-03-31T10:11:55;10.30;99.90
3996;DHT22;2012;49.794;9.722;2023-03-31T10:14:25;10.30;99.90
3996;DHT22;2012;49.794;9.722;2023-03-31T10:16:55;10.30;99.90
3996;DHT22;2012;49.794;9.722;2023-03-31T10:19:23;10.30;99.90
3996;DHT22;2012;49.794;9.722;2023-03-31T10:22:02;10.30;99.90
3996;DHT22;2012;49.794;9.722;2023-03-31T10:24:41;10.30;99.90
3996;DHT22;2012;49.794;9.722;2023-03-31T10:27:29;10.30;99.90
3996;DHT22;2012;49.794;9.722;2023-03-31T10:29:59;10.30;99.90
3996;DHT22;2012;49.794;9.722;2023-03-31T10:32:29;10.20;99.90
3996;DHT22;2012;49.794;9.722;2023-03-31T10:34:58;10.10;99.90
3996;DHT22;2012;49.794;9.722;2023-03-31T10:37:29;10.00;99.90
3996;DHT22;2012;49.794;9.722;2023-03-31T10:40:18;9.90;99.90
3996;DHT22;2012;49.794;9.722;2023-03-31T10:42:57;9.80;99.90
3996;DHT22;2012;49.794;9.722;2023-03-31T10:45:28;9.80;99.90
3996;DHT22;2012;49.794;9.722;2023-03-31T10:48:04;9.70;99.90
3996;DHT22;2012;49.794;9.722;2023-03-31T10:50:35;9.60;99.90
3996;DHT22;2012;49.794;9.722;2023-03-31T10:53:13;9.50;99.90
3996;DHT22;2012;49.794;9.722;2023-03-31T10:58:21;9.40;99.90
3996;DHT22;2012;49.794;9.722;2023-03-31T11:01:17;9.40;99.90
3996;DHT22;2012;49.794;9.722;2023-03-31T11:03:56;9.40;99.90
3996;DHT22;2012;49.794;9.722;2023-03-31T11:09:32;9.50;99.90
3996;DHT22;2012;49.794;9.722;2023-03-31T11:15:06;9.60;99.90
3996;DHT22;2012;49.794;9.722;2023-03-31T11:23:18;9.70;99.90
3996;DHT22;2012;49.794;9.722;2023-03-31T11:42:35;10.60;99.90
3996;DHT22;2012;49.794;9.722;2023-03-31T11:45:18;10.70;99.90
3996;DHT22;2012;49.794;9.722;2023-03-31T11:47:51;10.80;99.90
3996;DHT22;2012;49.794;9.722;2023-03-31T11:50:25;10.80;99.90
3996;DHT22;2012;49.794;9.722;2023-03-31T11:53:17;10.80;99.90
3996;DHT22;2012;49.794;9.722;2023-03-31T11:55:47;10.90;99.90
3996;DHT22;2012;49.794;9.722;2023-03-31T11:58:21;10.80;99.90
3996;DHT22;2012;49.794;9.722;2023-03-31T12:00:57;10.80;99.90
3996;DHT22;2012;49.794;9.722;2023-03-31T12:03:32;10.70;99.90
3996;DHT22;2012;49.794;9.722;2023-03-31T12:06:07;10.70;99.90
3996;DHT22;2012;49.794;9.722;2023-03-31T12:08:46;10.70;99.90
3996;DHT22;2012;49.794;9.722;2023-03-31T12:11:28;10.70;99.90
3996;DHT22;2012;49.794;9.722;2023-03-31T12:16:50;10.80;99.90
3996;DHT22;2012;49.794;9.722;2023-03-31T12:19:29;10.80;99.90
3996;DHT22;2012;49.794;9.722;2023-03-31T12:24:35;11.00;99.90
3996;DHT22;2012;49.794;9.722;2023-03-31T12:27:16;11.00;99.90
3996;DHT22;2012;49.794;9.722;2023-03-31T12:29:57;11.00;99.90
3996;DHT22;2012;49.794;9.722;2023-03-31T12:32:34;11.10;99.90
3996;DHT22;2012;49.794;9.722;2023-03-31T12:37:58;11.40;99.90
3996;DHT22;2012;49.794;9.722;2023-03-31T12:49:03;12.20;99.90
3996;DHT22;2012;49.794;9.722;2023-03-31T12:54:49;12.50;99.90
3996;DHT22;2012;49.794;9.722;2023-03-31T12:57:24;12.60;99.90
3996;DHT22;2012;49.794;9.722;2023-03-31T13:00:18;12.70;99.90
3996;DHT22;2012;49.794;9.722;2023-03-31T13:02:47;12.70;99.90
3996;DHT22;2012;49.794;9.722;2023-03-31T13:08:07;13.10;99.90
3996;DHT22;2012;49.794;9.722;2023-03-31T13:10:55;12.80;99.90
3996;DHT22;2012;49.794;9.722;2023-03-31T13:13:24;12.90;99.90
3996;DHT22;2012;49.794;9.722;2023-03-31T13:15:56;13.00;99.90
3996;DHT22;2012;49.794;9.722;2023-03-31T13:18:23;12.80;99.90
3996;DHT22;2012;49.794;9.722;2023-03-31T13:21:02;12.80;99.90
3996;DHT22;2012;49.794;9.722;2023-03-31T13:23:34;12.80;99.90
3996;DHT22;2012;49.794;9.722;2023-03-31T13:26:01;12.70;99.90
3996;DHT22;2012;49.794;9.722;2023-03-31T13:28:41;13.10;99.90
3996;DHT22;2012;49.794;9.722;2023-03-31T13:31:11;13.40;99.90
3996;DHT22;2012;49.794;9.722;2023-03-31T13:59:05;13.70;99.90
3996;DHT22;2012;49.794;9.722;2023-03-31T14:01:52;13.90;99.90
3996;DHT22;2012;49.794;9.722;2023-03-31T14:07:14;14.60;99.90
3996;DHT22;2012;49.794;9.722;2023-03-31T14:09:44;14.70;99.90
3996;DHT22;2012;49.794;9.722;2023-03-31T14:12:29;14.60;99.90
3996;DHT22;2012;49.794;9.722;2023-03-31T14:14:56;14.50;99.90
3996;DHT22;2012;49.794;9.722;2023-03-31T14:17:37;14.40;99.90
3996;DHT22;2012;49.794;9.722;2023-03-31T14:22:52;14.10;99.90
3996;DHT22;2012;49.794;9.722;2023-03-31T14:28:13;13.90;99.90
3996;DHT22;2012;49.794;9.722;2023-03-31T14:39:09;13.80;99.90
3996;DHT22;2012;49.794;9.722;2023-03-31T14:41:37;13.50;99.90
3996;DHT22;2012;49.794;9.722;2023-03-31T14:44:06;13.40;99.90
3996;DHT22;2012;49.794;9.722;2023-03-31T14:46:37;13.40;99.90
3996;DHT22;2012;49.794;9.722;2023-03-31T14:49:22;13.40;99.90
3996;DHT22;2012;49.794;9.722;2023-03-31T14:51:59;13.20;99.90
3996;DHT22;2012;49.794;9.722;2023-03-31T14:54:26;13.30;99.90
3996;DHT22;2012;49.794;9.722;2023-03-31T14:56:55;13.30;99.90
3996;DHT22;2012;49.794;9.722;2023-03-31T14:59:29;13.20;99.90
3996;DHT22;2012;49.794;9.722;2023-03-31T15:01:59;13.20;99.90
3996;DHT22;2012;49.794;9.722;2023-03-31T15:04:29;13.20;99.90
3996;DHT22;2012;49.794;9.722;2023-03-31T15:07:07;13.10;99.90
3996;DHT22;2012;49.794;9.722;2023-03-31T15:09:34;13.10;99.90
3996;DHT22;2012;49.794;9.722;2023-03-31T15:12:07;13.10;99.90
3996;DHT22;2012;49.794;9.722;2023-03-31T15:14:45;13.10;99.90
3996;DHT22;2012;49.794;9.722;2023-03-31T15:17:23;13.10;99.90
3996;DHT22;2012;49.794;9.722;2023-03-31T15:19:56;13.10;99.90
3996;DHT22;2012;49.794;9.722;2023-03-31T15:22:25;13.30;99.90
3996;DHT22;2012;49.794;9.722;2023-03-31T15:24:53;13.50;99.90
3996;DHT22;2012;49.794;9.722;2023-03-31T15:30:11;13.80;99.90
3996;DHT22;2012;49.794;9.722;2023-03-31T15:32:39;13.60;99.90
3996;DHT22;2012;49.794;9.722;2023-03-31T15:35:19;13.50;99.90
3996;DHT22;2012;49.794;9.722;2023-03-31T15:37:49;13.70;99.90
3996;DHT22;2012;49.794;9.722;2023-03-31T15:40:24;13.80;99.90
3996;DHT22;2012;49.794;9.722;2023-03-31T15:42:58;13.90;99.90
3996;DHT22;2012;49.794;9.722;2023-03-31T15:45:53;13.80;99.90
3996;DHT22;2012;49.794;9.722;2023-03-31T15:48:34;13.90;99.90
3996;DHT22;2012;49.794;9.722;2023-03-31T15:51:29;13.70;99.90
3996;DHT22;2012;49.794;9.722;2023-03-31T15:53:56;13.50;99.90
3996;DHT22;2012;49.794;9.722;2023-03-31T15:56:34;13.20;99.90
3996;DHT22;2012;49.794;9.722;2023-03-31T15:59:06;13.10;99.90
3996;DHT22;2012;49.794;9.722;2023-03-31T16:01:48;13.10;99.90
3996;DHT22;2012;49.794;9.722;2023-03-31T16:04:16;12.90;99.90
3996;DHT22;2012;49.794;9.722;2023-03-31T16:09:40;12.80;99.90
3996;DHT22;2012;49.794;9.722;2023-03-31T16:12:11;12.70;99.90
3996;DHT22;2012;49.794;9.722;2023-03-31T16:14:49;12.60;99.90
3996;DHT22;2012;49.794;9.722;2023-03-31T16:17:22;12.50;99.90
3996;DHT22;2012;49.794;9.722;2023-03-31T16:19:56;12.40;99.90
3996;DHT22;2012;49.794;9.722;2023-03-31T16:22:30;12.40;99.90
3996;DHT22;2012;49.794;9.722;2023-03-31T16:24:58;11.80;99.90
3996;DHT22;2012;49.794;9.722;2023-03-31T16:27:25;11.40;99.90
3996;DHT22;2012;49.794;9.722;2023-03-31T16:30:05;11.30;99.90
3996;DHT22;2012;49.794;9.722;2023-03-31T16:32:33;11.20;99.90
3996;DHT22;2012;49.794;9.722;2023-03-31T16:35:02;11.40;99.90
3996;DHT22;2012;49.794;9.722;2023-03-31T16:37:29;11.50;99.90
3996;DHT22;2012;49.794;9.722;2023-03-31T16:39:56;11.50;99.90
3996;DHT22;2012;49.794;9.722;2023-03-31T16:42:23;11.60;99.90
3996;DHT22;2012;49.794;9.722;2023-03-31T16:44:50;11.60;99.90
3996;DHT22;2012;49.794;9.722;2023-03-31T16:47:37;11.70;99.90
3996;DHT22;2012;49.794;9.722;2023-03-31T16:50:04;11.60;99.90
3996;DHT22;2012;49.794;9.722;2023-03-31T16:52:33;11.60;99.90
3996;DHT22;2012;49.794;9.722;2023-03-31T16:55:01;11.60;99.90
3996;DHT22;2012;49.794;9.722;2023-03-31T16:57:28;11.80;99.90
3996;DHT22;2012;49.794;9.722;2023-03-31T16:59:55;11.80;99.90
3996;DHT22;2012;49.794;9.722;2023-03-31T17:02:24;11.70;99.90
3996;DHT22;2012;49.794;9.722;2023-03-31T17:04:52;11.50;99.90
3996;DHT22;2012;49.794;9.722;2023-03-31T17:07:38;11.60;99.90
3996;DHT22;2012;49.794;9.722;2023-03-31T17:10:06;11.60;99.90
3996;DHT22;2012;49.794;9.722;2023-03-31T17:12:33;11.40;99.90
3996;DHT22;2012;49.794;9.722;2023-03-31T17:15:00;11.40;99.90
3996;DHT22;2012;49.794;9.722;2023-03-31T17:17:28;11.30;99.90
3996;DHT22;2012;49.794;9.722;2023-03-31T17:19:55;11.40;99.90
3996;DHT22;2012;49.794;9.722;2023-03-31T17:22:23;11.50;99.90
3996;DHT22;2012;49.794;9.722;2023-03-31T17:24:49;11.40;99.90
3996;DHT22;2012;49.794;9.722;2023-03-31T17:27:27;11.30;99.90
3996;DHT22;2012;49.794;9.722;2023-03-31T17:29:54;11.30;99.90
3996;DHT22;2012;49.794;9.722;2023-03-31T17:32:22;11.30;99.90
3996;DHT22;2012;49.794;9.722;2023-03-31T17:34:49;11.30;99.90
3996;DHT22;2012;49.794;9.722;2023-03-31T17:37:17;11.30;99.90
3996;DHT22;2012;49.794;9.722;2023-03-31T17:39:44;11.20;99.90
3996;DHT22;2012;49.794;9.722;2023-03-31T17:42:11;11.30;99.90
3996;DHT22;2012;49.794;9.722;2023-03-31T17:44:39;11.30;99.90
3996;DHT22;2012;49.794;9.722;2023-03-31T17:47:06;11.30;99.90
3996;DHT22;2012;49.794;9.722;2023-03-31T17:49:33;11.30;99.90
3996;DHT22;2012;49.794;9.722;2023-03-31T17:52:00;11.30;99.90
3996;DHT22;2012;49.794;9.722;2023-03-31T17:54:27;11.30;99.90
3996;DHT22;2012;49.794;9.722;2023-03-31T17:56:54;11.20;99.90
3996;DHT22;2012;49.794;9.722;2023-03-31T17:59:21;11.20;99.90
3996;DHT22;2012;49.794;9.722;2023-03-31T18:01:49;11.20;99.90
3996;DHT22;2012;49.794;9.722;2023-03-31T18:04:17;11.10;99.90
3996;DHT22;2012;49.794;9.722;2023-03-31T18:06:43;11.10;99.90
3996;DHT22;2012;49.794;9.722;2023-03-31T18:09:13;11.10;99.90
3996;DHT22;2012;49.794;9.722;2023-03-31T18:11:40;11.00;99.90
3996;DHT22;2012;49.794;9.722;2023-03-31T18:14:07;11.00;99.90
3996;DHT22;2012;49.794;9.722;2023-03-31T18:16:34;11.10;99.90
3996;DHT22;2012;49.794;9.722;2023-03-31T18:19:02;11.00;99.90
3996;DHT22;2012;49.794;9.722;2023-03-31T18:21:30;11.00;99.90
3996;DHT22;2012;49.794;9.722;2023-03-31T18:23:56;11.00;99.90
3996;DHT22;2012;49.794;9.722;2023-03-31T18:26:24;11.10;99.90
3996;DHT22;2012;49.794;9.722;2023-03-31T18:28:53;11.10;99.90
3996;DHT22;2012;49.794;9.722;2023-03-31T18:31:20;11.00;99.90
3996;DHT22;2012;49.794;9.722;2023-03-31T18:33:47;11.10;99.90
3996;DHT22;2012;49.794;9.722;2023-03-31T18:36:18;11.00;99.90
3996;DHT22;2012;49.794;9.722;2023-03-31T18:38:47;11.10;99.90
3996;DHT22;2012;49.794;9.722;2023-03-31T18:41:15;11.00;99.90
3996;DHT22;2012;49.794;9.722;2023-03-31T18:43:43;11.00;99.90
3996;DHT22;2012;49.794;9.722;2023-03-31T18:46:10;11.00;99.90
3996;DHT22;2012;49.794;9.722;2023-03-31T18:48:37;11.00;99.90
3996;DHT22;2012;49.794;9.722;2023-03-31T18:51:04;10.90;99.90
3996;DHT22;2012;49.794;9.722;2023-03-31T18:53:31;11.00;99.90
3996;DHT22;2012;49.794;9.722;2023-03-31T18:55:58;11.00;99.90
3996;DHT22;2012;49.794;9.722;2023-03-31T18:58:26;10.90;99.90
3996;DHT22;2012;49.794;9.722;2023-03-31T19:00:56;10.90;99.90
3996;DHT22;2012;49.794;9.722;2023-03-31T19:03:23;10.80;99.90